sensor_id;sensor_type;location;lat;lon;timestamp;pressure;altitude;pressure_sealevel;temperature;humidity
13709;BME280;54933;51.908;7.730;2023-04-01T00:01:42;98673.56;;;21.24;71.08
13709;BME280;54933;51.908;7.730;2023-04-01T00:04:07;98677.91;;;21.25;70.85
13709;BME280;54933;51.908;7.730;2023-04-01T00:06:32;98669.78;;;21.25;70.75
13709;BME280;54933;51.908;7.730;2023-04-01T00:08:58;98671.41;;;21.26;70.66
13709;BME280;54933;51.908;7.730;2023-04-01T00:11:23;98666.00;;;21.26;70.58
13709;BME280;54933;51.908;7.730;2023-04-01T00:13:49;98672.22;;;21.27;70.73
13709;BME280;54933;51.908;7.730;2023-04-01T00:16:15;98664.94;;;21.27;70.67
13709;BME280;54933;51.908;7.730;2023-04-01T00:18:40;98675.47;;;21.24;70.98
13709;BME280;54933;51.908;7.730;2023-04-01T00:21:06;98669.22;;;21.18;70.69
13709;BME280;54933;51.908;7.730;2023-04-01T00:23:31;98667.63;;;21.17;70.64
13709;BME280;54933;51.908;7.730;2023-04-01T00:26:00;98667.06;;;21.15;70.71
13709;BME280;54933;51.908;7.730;2023-04-01T00:28:26;98665.97;;;21.16;70.67
13709;BME280;54933;51.908;7.730;2023-04-01T00:30:51;98670.59;;;21.16;70.90
13709;BME280;54933;51.908;7.730;2023-04-01T00:33:17;98667.63;;;21.17;71.16
13709;BME280;54933;51.908;7.730;2023-04-01T00:35:42;98666.81;;;21.17;71.18
13709;BME280;54933;51.908;7.730;2023-04-01T00:38:07;98663.00;;;21.18;70.98
13709;BME280;54933;51.908;7.730;2023-04-01T00:40:36;98671.94;;;21.18;70.99
13709;BME280;54933;51.908;7.730;2023-04-01T00:43:02;98661.13;;;21.18;70.95
13709;BME280;54933;51.908;7.730;2023-04-01T00:45:39;98658.44;;;21.18;71.10
13709;BME280;54933;51.908;7.730;2023-04-01T00:48:15;98660.84;;;21.20;70.84
13709;BME280;54933;51.908;7.730;2023-04-01T00:50:46;98655.19;;;21.21;71.14
13709;BME280;54933;51.908;7.730;2023-04-01T00:53:13;98661.94;;;21.19;71.15
13709;BME280;54933;51.908;7.730;2023-04-01T00:55:43;98653.84;;;21.19;70.83
13709;BME280;54933;51.908;7.730;2023-04-01T00:58:14;98653.84;;;21.19;70.88
13709;BME280;54933;51.908;7.730;2023-04-01T01:00:42;98654.63;;;21.19;70.84
13709;BME280;54933;51.908;7.730;2023-04-01T01:03:07;98651.69;;;21.21;71.09
13709;BME280;54933;51.908;7.730;2023-04-01T01:06:01;98660.03;;;21.19;71.05
13709;BME280;54933;51.908;7.730;2023-04-01T01:08:48;98650.88;;;21.20;70.67
13709;BME280;54933;51.908;7.730;2023-04-01T01:11:22;98651.16;;;21.19;70.90
13709;BME280;54933;51.908;7.730;2023-04-01T01:13:58;98647.63;;;21.18;70.95
13709;BME280;54933;51.908;7.730;2023-04-01T01:16:29;98656.81;;;21.17;70.77
13709;BME280;54933;51.908;7.730;2023-04-01T01:19:07;98647.91;;;21.17;70.91
13709;BME280;54933;51.908;7.730;2023-04-01T01:21:41;98648.16;;;21.15;70.98
13709;BME280;54933;51.908;7.730;2023-04-01T01:24:25;98649.78;;;21.16;70.93
13709;BME280;54933;51.908;7.730;2023-04-01T01:27:00;98648.16;;;21.15;71.13
13709;BME280;54933;51.908;7.730;2023-04-01T01:32:42;98646.56;;;21.14;70.90
13709;BME280;54933;51.908;7.730;2023-04-01T01:37:43;98646.03;;;21.17;70.97
13709;BME280;54933;51.908;7.730;2023-04-01T01:40:11;98646.81;;;21.18;70.99
13709;BME280;54933;51.908;7.730;2023-04-01T01:42:39;98649.25;;;21.19;70.93
13709;BME280;54933;51.908;7.730;2023-04-01T01:45:06;98646.53;;;21.19;70.84
13709;BME280;54933;51.908;7.730;2023-04-01T01:47:34;98645.47;;;21.20;70.61
13709;BME280;54933;51.908;7.730;2023-04-01T01:50:01;98645.47;;;21.20;70.94
13709;BME280;54933;51.908;7.730;2023-04-01T01:52:28;98640.63;;;21.22;70.62
13709;BME280;54933;51.908;7.730;2023-04-01T01:54:55;98638.44;;;21.24;70.69
13709;BME280;54933;51.908;7.730;2023-04-01T01:57:28;98643.31;;;21.22;70.46
13709;BME280;54933;51.908;7.730;2023-04-01T01:59:58;98641.13;;;21.24;70.48
13709;BME280;54933;51.908;7.730;2023-04-01T02:02:25;98642.78;;;21.25;70.98
13709;BME280;54933;51.908;7.730;2023-04-01T02:04:52;98648.19;;;21.25;70.51
13709;BME280;54933;51.908;7.730;2023-04-01T02:07:31;98651.94;;;21.24;70.37
13709;BME280;54933;51.908;7.730;2023-04-01T02:09:58;98646.53;;;21.24;70.47
13709;BME280;54933;51.908;7.730;2023-04-01T02:12:24;98648.19;;;21.25;70.46
13709;BME280;54933;51.908;7.730;2023-04-01T02:14:54;98648.19;;;21.25;70.68
13709;BME280;54933;51.908;7.730;2023-04-01T02:17:23;98651.94;;;21.24;70.56
13709;BME280;54933;51.908;7.730;2023-04-01T02:20:08;98651.44;;;21.22;70.70
13709;BME280;54933;51.908;7.730;2023-04-01T02:22:40;98649.25;;;21.24;70.69
13709;BME280;54933;51.908;7.730;2023-04-01T02:25:13;98651.94;;;21.24;70.80
13709;BME280;54933;51.908;7.730;2023-04-01T02:27:42;98646.81;;;21.23;70.52
13709;BME280;54933;51.908;7.730;2023-04-01T02:30:09;98659.25;;;21.24;70.58
13709;BME280;54933;51.908;7.730;2023-04-01T02:32:35;98650.34;;;21.23;71.00
13709;BME280;54933;51.908;7.730;2023-04-01T02:35:08;98646.53;;;21.24;70.76
13709;BME280;54933;51.908;7.730;2023-04-01T02:37:35;98640.63;;;21.22;70.49
13709;BME280;54933;51.908;7.730;2023-04-01T02:40:02;98651.16;;;21.24;70.74
13709;BME280;54933;51.908;7.730;2023-04-01T02:42:28;98640.06;;;21.25;70.68
13709;BME280;54933;51.908;7.730;2023-04-01T02:44:53;98646.53;;;21.24;70.78
13709;BME280;54933;51.908;7.730;2023-04-01T02:47:18;98641.13;;;21.24;70.67
13709;BME280;54933;51.908;7.730;2023-04-01T02:49:44;98640.06;;;21.25;70.93
13709;BME280;54933;51.908;7.730;2023-04-01T02:52:09;98635.72;;;21.24;70.42
13709;BME280;54933;51.908;7.730;2023-04-01T02:54:34;98633.59;;;21.26;70.81
13709;BME280;54933;51.908;7.730;2023-04-01T02:57:00;98631.97;;;21.25;70.68
13709;BME280;54933;51.908;7.730;2023-04-01T02:59:25;98631.97;;;21.25;70.73
13709;BME280;54933;51.908;7.730;2023-04-01T03:01:50;98630.88;;;21.26;70.54
13709;BME280;54933;51.908;7.730;2023-04-01T03:04:16;98631.97;;;21.25;70.29
13709;BME280;54933;51.908;7.730;2023-04-01T03:06:41;98635.72;;;21.24;70.77
13709;BME280;54933;51.908;7.730;2023-04-01T03:09:06;98633.59;;;21.26;70.63
13709;BME280;54933;51.908;7.730;2023-04-01T03:11:31;98636.56;;;21.25;70.50
13709;BME280;54933;51.908;7.730;2023-04-01T03:13:57;98642.78;;;21.25;70.86
13709;BME280;54933;51.908;7.730;2023-04-01T03:16:23;98638.97;;;21.26;70.89
13709;BME280;54933;51.908;7.730;2023-04-01T03:18:48;98640.06;;;21.25;70.88
13709;BME280;54933;51.908;7.730;2023-04-01T03:21:21;98637.91;;;21.22;70.85
13709;BME280;54933;51.908;7.730;2023-04-01T03:23:47;98636.56;;;21.25;70.90
13709;BME280;54933;51.908;7.730;2023-04-01T03:26:12;98644.66;;;21.25;70.73
13709;BME280;54933;51.908;7.730;2023-04-01T03:28:38;98646.28;;;21.26;70.74
13709;BME280;54933;51.908;7.730;2023-04-01T03:31:03;98648.44;;;21.24;70.61
13709;BME280;54933;51.908;7.730;2023-04-01T03:33:30;98648.19;;;21.25;70.92
13709;BME280;54933;51.908;7.730;2023-04-01T03:35:55;98647.34;;;21.25;70.86
13709;BME280;54933;51.908;7.730;2023-04-01T03:38:21;98650.34;;;21.23;71.06
13709;BME280;54933;51.908;7.730;2023-04-01T03:40:46;98655.47;;;21.25;70.94
13709;BME280;54933;51.908;7.730;2023-04-01T03:43:11;98652.75;;;21.25;70.85
13709;BME280;54933;51.908;7.730;2023-04-01T03:45:50;98651.16;;;21.24;70.72
13709;BME280;54933;51.908;7.730;2023-04-01T03:48:16;98658.44;;;21.23;70.86
13709;BME280;54933;51.908;7.730;2023-04-01T03:50:42;98658.97;;;21.25;70.94
13709;BME280;54933;51.908;7.730;2023-04-01T03:53:08;98663.56;;;21.25;70.76
13709;BME280;54933;51.908;7.730;2023-04-01T03:55:35;98655.19;;;21.26;71.08
13709;BME280;54933;51.908;7.730;2023-04-01T03:58:01;98664.13;;;21.27;70.89
13709;BME280;54933;51.908;7.730;2023-04-01T04:00:31;98660.59;;;21.26;70.82
13709;BME280;54933;51.908;7.730;2023-04-01T04:02:57;98657.06;;;21.26;70.82
13709;BME280;54933;51.908;7.730;2023-04-01T04:05:23;98663.28;;;21.26;70.91
13709;BME280;54933;51.908;7.730;2023-04-01T04:07:49;98664.38;;;21.25;70.76
13709;BME280;54933;51.908;7.730;2023-04-01T04:10:15;98658.16;;;21.25;70.88
13709;BME280;54933;51.908;7.730;2023-04-01T04:12:40;98657.34;;;21.24;71.00
13709;BME280;54933;51.908;7.730;2023-04-01T04:15:06;98668.16;;;21.24;70.97
13709;BME280;54933;51.908;7.730;2023-04-01T04:17:32;98670.34;;;21.22;70.77
13709;BME280;54933;51.908;7.730;2023-04-01T04:19:57;98670.34;;;21.22;70.80
13709;BME280;54933;51.908;7.730;2023-04-01T04:22:22;98671.94;;;21.23;71.08
13709;BME280;54933;51.908;7.730;2023-04-01T04:24:48;98674.09;;;21.21;71.00
13709;BME280;54933;51.908;7.730;2023-04-01T04:27:13;98675.72;;;21.22;71.13
13709;BME280;54933;51.908;7.730;2023-04-01T04:29:38;98683.56;;;21.24;70.60
13709;BME280;54933;51.908;7.730;2023-04-01T04:32:03;98675.72;;;21.22;71.03
13709;BME280;54933;51.908;7.730;2023-04-01T04:34:29;98679.50;;;21.21;71.01
13709;BME280;54933;51.908;7.730;2023-04-01T04:36:54;98684.63;;;21.23;70.81
13709;BME280;54933;51.908;7.730;2023-04-01T04:39:19;98681.13;;;21.22;70.89
13709;BME280;54933;51.908;7.730;2023-04-01T04:41:45;98683.84;;;21.22;70.85
13709;BME280;54933;51.908;7.730;2023-04-01T04:44:10;98685.44;;;21.23;70.75
13709;BME280;54933;51.908;7.730;2023-04-01T04:46:35;98688.97;;;21.24;70.74
13709;BME280;54933;51.908;7.730;2023-04-01T04:49:02;98685.19;;;21.25;70.70
13709;BME280;54933;51.908;7.730;2023-04-01T04:51:27;98693.28;;;21.25;70.57
13709;BME280;54933;51.908;7.730;2023-04-01T04:53:52;98694.38;;;21.24;70.87
13709;BME280;54933;51.908;7.730;2023-04-01T04:56:19;98691.41;;;21.25;70.84
13709;BME280;54933;51.908;7.730;2023-04-01T04:58:45;98701.66;;;21.23;70.75
13709;BME280;54933;51.908;7.730;2023-04-01T05:01:13;98695.97;;;21.25;70.78
13709;BME280;54933;51.908;7.730;2023-04-01T05:03:39;98691.41;;;21.25;70.87
13709;BME280;54933;51.908;7.730;2023-04-01T05:06:06;98696.81;;;21.25;70.66
13709;BME280;54933;51.908;7.730;2023-04-01T05:08:32;98699.50;;;21.25;70.96
13709;BME280;54933;51.908;7.730;2023-04-01T05:10:58;98705.69;;;21.26;70.69
13709;BME280;54933;51.908;7.730;2023-04-01T05:13:24;98701.09;;;21.26;70.64
13709;BME280;54933;51.908;7.730;2023-04-01T05:15:50;98711.91;;;21.26;70.54
13709;BME280;54933;51.908;7.730;2023-04-01T05:18:15;98709.22;;;21.26;70.66
13709;BME280;54933;51.908;7.730;2023-04-01T05:20:49;98709.22;;;21.26;70.92
13709;BME280;54933;51.908;7.730;2023-04-01T05:23:15;98718.41;;;21.25;70.82
13709;BME280;54933;51.908;7.730;2023-04-01T05:25:41;98712.19;;;21.25;70.64
13709;BME280;54933;51.908;7.730;2023-04-01T05:28:06;98718.41;;;21.25;70.65
13709;BME280;54933;51.908;7.730;2023-04-01T05:30:32;98708.41;;;21.26;70.78
13709;BME280;54933;51.908;7.730;2023-04-01T05:32:57;98724.88;;;21.24;70.57
13709;BME280;54933;51.908;7.730;2023-04-01T05:35:23;98719.19;;;21.26;70.82
13709;BME280;54933;51.908;7.730;2023-04-01T05:37:48;98712.19;;;21.25;70.77
13709;BME280;54933;51.908;7.730;2023-04-01T05:40:13;98720.03;;;21.26;70.84
13709;BME280;54933;51.908;7.730;2023-04-01T05:42:39;98718.41;;;21.25;70.77
13709;BME280;54933;51.908;7.730;2023-04-01T05:45:05;98720.03;;;21.26;70.85
13709;BME280;54933;51.908;7.730;2023-04-01T05:47:30;98722.72;;;21.26;70.96
13709;BME280;54933;51.908;7.730;2023-04-01T05:49:55;98730.81;;;21.26;70.60
13709;BME280;54933;51.908;7.730;2023-04-01T05:52:21;98726.25;;;21.27;70.79
13709;BME280;54933;51.908;7.730;2023-04-01T05:54:46;98727.06;;;21.27;70.59
13709;BME280;54933;51.908;7.730;2023-04-01T05:57:11;98729.78;;;21.27;70.86
13709;BME280;54933;51.908;7.730;2023-04-01T05:59:37;98726.25;;;21.27;70.54
13709;BME280;54933;51.908;7.730;2023-04-01T06:02:02;98728.13;;;21.26;70.85
13709;BME280;54933;51.908;7.730;2023-04-01T06:04:33;98727.06;;;21.27;70.79
13709;BME280;54933;51.908;7.730;2023-04-01T06:07:00;98728.13;;;21.26;70.66
13709;BME280;54933;51.908;7.730;2023-04-01T06:09:29;98733.53;;;21.26;70.78
13709;BME280;54933;51.908;7.730;2023-04-01T06:12:23;98737.03;;;21.27;70.77
13709;BME280;54933;51.908;7.730;2023-04-01T06:20:43;98743.50;;;21.26;70.69
13709;BME280;54933;51.908;7.730;2023-04-01T06:23:16;98741.88;;;21.20;71.33
13709;BME280;54933;51.908;7.730;2023-04-01T06:34:26;98764.84;;;21.12;70.45
13709;BME280;54933;51.908;7.730;2023-04-01T06:45:49;98762.69;;;21.09;70.86
13709;BME280;54933;51.908;7.730;2023-04-01T06:48:53;98767.00;;;21.10;71.06
13709;BME280;54933;51.908;7.730;2023-04-01T06:54:21;98769.69;;;21.10;71.33
13709;BME280;54933;51.908;7.730;2023-04-01T06:56:54;98773.47;;;21.09;71.49
13709;BME280;54933;51.908;7.730;2023-04-01T06:59:26;98775.09;;;21.10;71.50
13709;BME280;54933;51.908;7.730;2023-04-01T07:01:55;98772.38;;;21.10;71.31
13709;BME280;54933;51.908;7.730;2023-04-01T07:04:35;98780.50;;;21.10;70.86
13709;BME280;54933;51.908;7.730;2023-04-01T07:07:14;98777.78;;;21.10;70.75
13709;BME280;54933;51.908;7.730;2023-04-01T07:09:49;98782.63;;;21.08;70.85
13709;BME280;54933;51.908;7.730;2023-04-01T07:14:56;98780.75;;;21.09;70.13
13709;BME280;54933;51.908;7.730;2023-04-01T07:17:27;98784.53;;;21.08;70.42
13709;BME280;54933;51.908;7.730;2023-04-01T07:19:59;98793.44;;;21.08;70.82
13709;BME280;54933;51.908;7.730;2023-04-01T07:22:31;98791.81;;;21.07;71.06
13709;BME280;54933;51.908;7.730;2023-04-01T07:25:02;98790.75;;;21.08;71.22
13709;BME280;54933;51.908;7.730;2023-04-01T07:27:28;98798.84;;;21.08;71.15
13709;BME280;54933;51.908;7.730;2023-04-01T07:29:56;98800.47;;;21.09;71.77
13709;BME280;54933;51.908;7.730;2023-04-01T07:37:53;98804.00;;;21.15;72.38
13709;BME280;54933;51.908;7.730;2023-04-01T07:40:35;98805.34;;;21.12;72.36
13709;BME280;54933;51.908;7.730;2023-04-01T07:43:26;98803.72;;;21.11;72.62
13709;BME280;54933;51.908;7.730;2023-04-01T07:46:02;98816.16;;;21.12;72.68
13709;BME280;54933;51.908;7.730;2023-04-01T07:48:39;98808.59;;;21.14;73.15
13709;BME280;54933;51.908;7.730;2023-04-01T07:51:15;98811.81;;;21.16;73.08
13709;BME280;54933;51.908;7.730;2023-04-01T07:56:24;98826.72;;;21.19;73.04
13709;BME280;54933;51.908;7.730;2023-04-01T08:04:45;98829.44;;;21.24;72.46
13709;BME280;54933;51.908;7.730;2023-04-01T08:07:20;98834.84;;;21.24;72.47
13709;BME280;54933;51.908;7.730;2023-04-01T08:10:07;98836.44;;;21.25;72.35
13709;BME280;54933;51.908;7.730;2023-04-01T08:15:49;98840.75;;;21.26;72.08
13709;BME280;54933;51.908;7.730;2023-04-01T08:21:35;98852.66;;;21.25;71.85
13709;BME280;54933;51.908;7.730;2023-04-01T08:24:19;98854.25;;;21.26;71.73
13709;BME280;54933;51.908;7.730;2023-04-01T08:26:49;98846.97;;;21.26;71.79
13709;BME280;54933;51.908;7.730;2023-04-01T08:29:22;98851.31;;;21.27;71.70
13709;BME280;54933;51.908;7.730;2023-04-01T08:32:03;98853.22;;;21.27;71.70
13709;BME280;54933;51.908;7.730;2023-04-01T08:34:36;98858.03;;;21.20;71.52
13709;BME280;54933;51.908;7.730;2023-04-01T08:37:13;98866.69;;;21.22;71.58
13709;BME280;54933;51.908;7.730;2023-04-01T08:39:47;98869.66;;;21.20;71.65
13709;BME280;54933;51.908;7.730;2023-04-01T08:44:56;98869.38;;;21.17;71.99
13709;BME280;54933;51.908;7.730;2023-04-01T08:47:34;98873.94;;;21.16;71.95
13709;BME280;54933;51.908;7.730;2023-04-01T08:50:24;98865.56;;;21.13;72.08
13709;BME280;54933;51.908;7.730;2023-04-01T09:12:58;98894.16;;;21.04;72.21
13709;BME280;54933;51.908;7.730;2023-04-01T09:15:48;98892.81;;;21.06;72.04
13709;BME280;54933;51.908;7.730;2023-04-01T09:26:51;98900.91;;;21.06;72.67
13709;BME280;54933;51.908;7.730;2023-04-01T09:37:19;98907.38;;;21.05;72.79
13709;BME280;54933;51.908;7.730;2023-04-01T09:40:14;98914.41;;;21.06;72.97
13709;BME280;54933;51.908;7.730;2023-04-01T09:48:05;98918.72;;;20.29;70.89
13709;BME280;54933;51.908;7.730;2023-04-01T09:56:27;98920.19;;;20.83;72.14
13709;BME280;54933;51.908;7.730;2023-04-01T10:15:34;98937.06;;;21.00;73.05
13709;BME280;54933;51.908;7.730;2023-04-01T10:21:16;98943.03;;;21.02;73.25
13709;BME280;54933;51.908;7.730;2023-04-01T10:27:00;98946.53;;;21.03;73.02
13709;BME280;54933;51.908;7.730;2023-04-01T10:35:28;98952.75;;;21.03;72.59
13709;BME280;54933;51.908;7.730;2023-04-01T10:38:26;98957.34;;;21.03;72.57
13709;BME280;54933;51.908;7.730;2023-04-01T10:52:56;98956.38;;;20.87;72.18
13709;BME280;54933;51.908;7.730;2023-04-01T10:55:53;98963.66;;;20.87;72.38
13709;BME280;54933;51.908;7.730;2023-04-01T10:58:42;98961.22;;;20.85;72.51
13709;BME280;54933;51.908;7.730;2023-04-01T11:07:20;98973.66;;;20.23;70.56
13709;BME280;54933;51.908;7.730;2023-04-01T11:18:45;98970.28;;;20.69;72.21
13709;BME280;54933;51.908;7.730;2023-04-01T11:21:44;98967.31;;;20.71;72.35
13709;BME280;54933;51.908;7.730;2023-04-01T11:26:52;98975.22;;;20.77;72.56
13709;BME280;54933;51.908;7.730;2023-04-01T11:38:25;98980.69;;;20.87;73.04
13709;BME280;54933;51.908;7.730;2023-04-01T11:43:44;98989.91;;;20.91;72.91
13709;BME280;54933;51.908;7.730;2023-04-01T11:46:44;98983.16;;;20.94;73.37
13709;BME280;54933;51.908;7.730;2023-04-01T11:49:22;98989.94;;;20.96;73.51
13709;BME280;54933;51.908;7.730;2023-04-01T11:54:44;98997.22;;;20.96;73.54
13709;BME280;54933;51.908;7.730;2023-04-01T11:57:41;98997.00;;;20.97;73.43
13709;BME280;54933;51.908;7.730;2023-04-01T12:00:39;99011.53;;;20.96;73.27
13709;BME280;54933;51.908;7.730;2023-04-01T12:03:33;99009.56;;;20.87;73.10
13709;BME280;54933;51.908;7.730;2023-04-01T12:06:16;99015.22;;;20.85;72.83
13709;BME280;54933;51.908;7.730;2023-04-01T12:09:01;99017.13;;;20.85;73.16
13709;BME280;54933;51.908;7.730;2023-04-01T12:11:37;99015.22;;;20.85;73.16
13709;BME280;54933;51.908;7.730;2023-04-01T12:14:27;99019.00;;;20.84;73.11
13709;BME280;54933;51.908;7.730;2023-04-01T12:19:56;99027.97;;;20.90;73.55
13709;BME280;54933;51.908;7.730;2023-04-01T12:28:18;99032.50;;;20.84;73.76
13709;BME280;54933;51.908;7.730;2023-04-01T12:36:18;99046.84;;;20.32;72.43
13709;BME280;54933;51.908;7.730;2023-04-01T12:41:57;99050.09;;;20.60;73.07
13709;BME280;54933;51.908;7.730;2023-04-01T12:53:14;99063.75;;;20.80;73.54
13709;BME280;54933;51.908;7.730;2023-04-01T12:55:45;99062.19;;;20.84;73.50
13709;BME280;54933;51.908;7.730;2023-04-01T13:01:27;99067.06;;;20.87;73.57
13709;BME280;54933;51.908;7.730;2023-04-01T13:07:15;99076.84;;;20.93;73.82
13709;BME280;54933;51.908;7.730;2023-04-01T13:10:00;99083.84;;;20.63;72.33
13709;BME280;54933;51.908;7.730;2023-04-01T13:15:15;99082.66;;;20.80;72.40
13709;BME280;54933;51.908;7.730;2023-04-01T13:20:36;99097.97;;;20.70;72.18
13709;BME280;54933;51.908;7.730;2023-04-01T13:23:14;99095.25;;;19.78;70.86
13709;BME280;54933;51.908;7.730;2023-04-01T13:26:06;99101.94;;;19.76;70.75
13709;BME280;54933;51.908;7.730;2023-04-01T13:28:47;99110.47;;;19.51;70.41
13709;BME280;54933;51.908;7.730;2023-04-01T13:31:33;99123.59;;;18.53;71.36
13709;BME280;54933;51.908;7.730;2023-04-01T13:42:54;99106.06;;;20.21;74.82
13709;BME280;54933;51.908;7.730;2023-04-01T13:45:24;99117.56;;;19.74;74.52
13709;BME280;54933;51.908;7.730;2023-04-01T13:48:28;99116.56;;;20.18;74.69
13709;BME280;54933;51.908;7.730;2023-04-01T13:51:07;99123.19;;;20.32;75.06
13709;BME280;54933;51.908;7.730;2023-04-01T14:08:09;99131.78;;;20.51;74.83
13709;BME280;54933;51.908;7.730;2023-04-01T14:13:37;99138.84;;;20.57;74.59
13709;BME280;54933;51.908;7.730;2023-04-01T14:16:20;99139.16;;;20.60;74.62
13709;BME280;54933;51.908;7.730;2023-04-01T14:19:18;99146.75;;;20.63;74.68
13709;BME280;54933;51.908;7.730;2023-04-01T14:22:10;99146.22;;;20.66;74.69
13709;BME280;54933;51.908;7.730;2023-04-01T14:27:46;99149.50;;;20.68;74.64
13709;BME280;54933;51.908;7.730;2023-04-01T14:30:28;99151.13;;;20.69;74.70
13709;BME280;54933;51.908;7.730;2023-04-01T14:33:17;99160.59;;;20.72;74.54
13709;BME280;54933;51.908;7.730;2023-04-01T14:44:30;99180.28;;;20.24;73.66
13709;BME280;54933;51.908;7.730;2023-04-01T14:47:15;99181.53;;;20.38;74.10
13709;BME280;54933;51.908;7.730;2023-04-01T14:50:13;99185.97;;;20.49;74.74
13709;BME280;54933;51.908;7.730;2023-04-01T14:52:42;99181.44;;;20.55;74.96
13709;BME280;54933;51.908;7.730;2023-04-01T14:55:31;99195.84;;;20.60;75.33
13709;BME280;54933;51.908;7.730;2023-04-01T14:57:59;99195.84;;;20.60;75.34
13709;BME280;54933;51.908;7.730;2023-04-01T15:01:06;99198.53;;;20.60;75.05
13709;BME280;54933;51.908;7.730;2023-04-01T15:03:32;99196.94;;;20.64;75.46
13709;BME280;54933;51.908;7.730;2023-04-01T15:09:10;99203.16;;;20.65;75.77
13709;BME280;54933;51.908;7.730;2023-04-01T15:17:48;99221.91;;;19.62;73.61
13709;BME280;54933;51.908;7.730;2023-04-01T15:23:37;99231.63;;;19.96;73.61
13709;BME280;54933;51.908;7.730;2023-04-01T15:26:24;99228.31;;;20.10;74.17
13709;BME280;54933;51.908;7.730;2023-04-01T15:29:11;99237.91;;;20.18;74.64
13709;BME280;54933;51.908;7.730;2023-04-01T15:37:39;99248.34;;;20.53;75.79
13709;BME280;54933;51.908;7.730;2023-04-01T15:40:24;99246.47;;;20.53;76.38
13709;BME280;54933;51.908;7.730;2023-04-01T15:48:41;99261.19;;;20.62;76.22
13709;BME280;54933;51.908;7.730;2023-04-01T15:51:19;99268.78;;;20.65;76.14
13709;BME280;54933;51.908;7.730;2023-04-01T15:54:25;99265.06;;;20.71;75.92
13709;BME280;54933;51.908;7.730;2023-04-01T15:57:32;99270.53;;;20.76;75.90
13709;BME280;54933;51.908;7.730;2023-04-01T16:00:24;99282.88;;;20.72;75.78
13709;BME280;54933;51.908;7.730;2023-04-01T16:13:42;99298.19;;;20.67;75.73
13709;BME280;54933;51.908;7.730;2023-04-01T16:16:26;99305.22;;;20.68;76.03
13709;BME280;54933;51.908;7.730;2023-04-01T16:19:02;99309.06;;;20.72;75.81
13709;BME280;54933;51.908;7.730;2023-04-01T16:21:53;99317.72;;;20.74;75.47
13709;BME280;54933;51.908;7.730;2023-04-01T16:24:46;99312.56;;;20.72;75.61
13709;BME280;54933;51.908;7.730;2023-04-01T16:27:36;99316.34;;;20.71;75.63
13709;BME280;54933;51.908;7.730;2023-04-01T16:32:57;99331.47;;;20.72;75.68
13709;BME280;54933;51.908;7.730;2023-04-01T16:35:43;99337.44;;;20.74;75.89
13709;BME280;54933;51.908;7.730;2023-04-01T16:43:28;99342.06;;;20.79;76.78
13709;BME280;54933;51.908;7.730;2023-04-01T16:46:27;99356.72;;;20.83;77.22
13709;BME280;54933;51.908;7.730;2023-04-01T16:55:02;99361.28;;;20.82;77.95
13709;BME280;54933;51.908;7.730;2023-04-01T16:57:43;99371.13;;;20.88;77.94
13709;BME280;54933;51.908;7.730;2023-04-01T17:02:54;99381.97;;;20.93;77.79
13709;BME280;54933;51.908;7.730;2023-04-01T17:05:39;99387.94;;;20.95;77.76
13709;BME280;54933;51.908;7.730;2023-04-01T17:08:30;99400.38;;;20.96;77.64
13709;BME280;54933;51.908;7.730;2023-04-01T17:11:06;99400.84;;;20.93;77.25
13709;BME280;54933;51.908;7.730;2023-04-01T17:13:46;99403.53;;;20.88;76.94
13709;BME280;54933;51.908;7.730;2023-04-01T17:16:44;99412.66;;;20.87;76.65
13709;BME280;54933;51.908;7.730;2023-04-01T17:22:26;99428.78;;;20.82;76.06
13709;BME280;54933;51.908;7.730;2023-04-01T17:25:09;99437.47;;;20.84;75.70
13709;BME280;54933;51.908;7.730;2023-04-01T17:30:33;99447.69;;;20.82;76.34
13709;BME280;54933;51.908;7.730;2023-04-01T17:35:35;99468.25;;;20.83;76.21
13709;BME280;54933;51.908;7.730;2023-04-01T17:38:43;99473.06;;;20.81;75.93
13709;BME280;54933;51.908;7.730;2023-04-01T17:49:49;99500.63;;;20.83;75.56
13709;BME280;54933;51.908;7.730;2023-04-01T18:04:07;99537.38;;;20.84;75.48
13709;BME280;54933;51.908;7.730;2023-04-01T18:06:44;99535.50;;;20.85;75.44
13709;BME280;54933;51.908;7.730;2023-04-01T18:09:32;99551.44;;;20.86;75.41
13709;BME280;54933;51.908;7.730;2023-04-01T18:12:12;99556.25;;;20.84;75.37
13709;BME280;54933;51.908;7.730;2023-04-01T18:21:01;99580.56;;;20.84;74.79
13709;BME280;54933;51.908;7.730;2023-04-01T18:23:45;99588.41;;;20.86;74.51
13709;BME280;54933;51.908;7.730;2023-04-01T18:26:28;99597.34;;;20.86;74.76
13709;BME280;54933;51.908;7.730;2023-04-01T18:29:41;99606.03;;;20.88;74.39
13709;BME280;54933;51.908;7.730;2023-04-01T18:32:15;99610.34;;;20.89;74.80
13709;BME280;54933;51.908;7.730;2023-04-01T18:37:42;99627.69;;;20.93;74.80
13709;BME280;54933;51.908;7.730;2023-04-01T18:40:15;99632.28;;;20.93;75.00
13709;BME280;54933;51.908;7.730;2023-04-01T18:43:08;99631.97;;;20.89;74.82
13709;BME280;54933;51.908;7.730;2023-04-01T18:50:56;99658.97;;;20.89;74.52
13709;BME280;54933;51.908;7.730;2023-04-01T18:53:25;99659.53;;;20.91;74.24
13709;BME280;54933;51.908;7.730;2023-04-01T18:58:37;99674.66;;;20.92;74.48
13709;BME280;54933;51.908;7.730;2023-04-01T19:06:30;99700.16;;;20.96;74.75
13709;BME280;54933;51.908;7.730;2023-04-01T19:09:15;99700.72;;;20.98;74.69
13709;BME280;54933;51.908;7.730;2023-04-01T19:14:37;99712.13;;;21.00;75.17
13709;BME280;54933;51.908;7.730;2023-04-01T19:17:45;99721.03;;;21.01;74.77
13709;BME280;54933;51.908;7.730;2023-04-01T19:22:55;99734.31;;;21.02;75.04
13709;BME280;54933;51.908;7.730;2023-04-01T19:25:35;99739.72;;;21.02;75.07
13709;BME280;54933;51.908;7.730;2023-04-01T19:28:16;99748.41;;;21.04;74.98
13709;BME280;54933;51.908;7.730;2023-04-01T19:30:59;99748.41;;;21.04;75.22
13709;BME280;54933;51.908;7.730;2023-04-01T19:34:34;99760.00;;;21.05;75.07
13709;BME280;54933;51.908;7.730;2023-04-01T19:36:34;99767.84;;;21.06;75.13
13709;BME280;54933;51.908;7.730;2023-04-01T19:39:13;99768.69;;;21.07;75.11